This is the latest recevied weather packets stored in our database for station/object DK0GS-10. If no packets are shown the sender has not sent any weather packets the latest 10 day(s).
| Time | Temp. | Humidity | Pressure | Rain* | Wind** | Luminosity | Snow |
|---|---|---|---|---|---|---|---|
| 1778039735 | 10° C | 96% | 1003.2 hPa | 2.79 mm | - | - | - |
| 1778035521 | 10° C | 96% | 1004 hPa | 3.56 mm | - | - | - |
| 1778034321 | 10.56° C | 96% | 1004.1 hPa | 3.56 mm | - | - | - |
| 1778030121 | 10.56° C | 96% | 1004.4 hPa | 4.06 mm | - | - | - |
| 1778022923 | 11.11° C | 95% | 1005.4 hPa | 2.03 mm | - | - | - |
| 1778018123 | 11.11° C | 95% | 1005.7 hPa | 1.52 mm | - | - | - |
| 1778015123 | 11.67° C | 95% | 1005.8 hPa | 0.76 mm | - | - | - |
| 1778013962 | 11.67° C | 94% | 1005.8 hPa | 0.51 mm | - | - | - |
| 1778007923 | 12.78° C | 91% | 1005.7 hPa | 0 mm | - | - | - |
| 1778005536 | 13.33° C | 90% | 1005.8 hPa | 0 mm | - | - | - |
| 1778002548 | 14.44° C | 88% | 1005.9 hPa | 0 mm | - | - | - |
| 1777995922 | 15.56° C | 84% | 1006.4 hPa | 0 mm | - | - | - |
| 1777994722 | 15.56° C | 83% | 1006.5 hPa | 0 mm | - | - | - |
| 1777992948 | 16.11° C | 81% | 1006.6 hPa | 0 mm | - | - | - |
| 1777988122 | 17.78° C | 78% | 1007.1 hPa | 0 mm | - | - | - |
| 1777985722 | 17.78° C | 79% | 1007.2 hPa | 0 mm | - | - | - |
| 1777981522 | 18.33° C | 75% | 1007.6 hPa | 0 mm | - | - | - |
| 1777975522 | 17.22° C | 80% | 1008.4 hPa | 0 mm | - | - | - |
| 1777971961 | 15.56° C | 92% | 1008.4 hPa | 0 mm | - | - | - |
| 1777961721 | 12.78° C | 96% | 1008.9 hPa | 0 mm | - | - | - |
| 1777959921 | 12.78° C | 96% | 1009 hPa | 0 mm | - | - | - |
| 1777958721 | 12.78° C | 96% | 1009 hPa | 0.51 mm | - | - | - |
| 1777954521 | 12.78° C | 96% | 1009.2 hPa | 1.27 mm | - | - | - |
| 1777952785 | 12.78° C | 96% | 1009.4 hPa | 0.25 mm | - | - | - |
| 1777952121 | 12.78° C | 96% | 1009.5 hPa | 0.25 mm | - | - | - |
* Rain latest hour (hover to see other rain measurements)
** Current wind speed in m/s (hover to see current wind gust speed)